Time;durP1;ratioP1;P1;durP2;ratioP2;P2;SDS_P1;SDS_P2;PMS_P1;PMS_P2;Temp;Humidity;BMP_temperature;BMP_pressure;BME280_temperature;BME280_humidity;BME280_pressure;Samples;Min_cycle;Max_cycle;Signal;HPM_P1;HPM_P2
2023/12/27 00:01:19;;;;;;;13.30;8.57;;;;;;;4.18;70.88;95056.31;5005175;28;20014;-70
2023/12/27 00:03:44;;;;;;;16.85;8.52;;;;;;;3.64;71.93;95039.50;5010983;28;20034;-71
2023/12/27 00:06:10;;;;;;;14.32;8.50;;;;;;;3.75;72.45;95061.13;4992956;28;20030;-70
2023/12/27 00:08:35;;;;;;;16.80;10.05;;;;;;;3.86;71.90;95068.28;5009800;28;20026;-70
2023/12/27 00:11:02;;;;;;;17.15;11.50;;;;;;;3.73;72.21;95070.69;4993835;28;20029;-70
2023/12/27 00:13:27;;;;;;;21.33;13.48;;;;;;;3.79;72.28;95079.81;4995131;28;20475;-70
2023/12/27 00:15:53;;;;;;;15.23;9.82;;;;;;;3.56;73.11;95066.38;4994678;28;20038;-70
2023/12/27 00:18:18;;;;;;;11.30;8.23;;;;;;;3.41;74.35;95079.22;5011979;28;20057;-70
2023/12/27 00:20:44;;;;;;;10.50;6.63;;;;;;;3.56;74.08;95073.28;5010393;28;20026;-70
2023/12/27 00:23:10;;;;;;;15.27;9.27;;;;;;;3.33;73.64;95075.28;5010369;28;20053;-70
2023/12/27 00:25:35;;;;;;;16.45;11.57;;;;;;;3.20;73.95;95065.69;5010888;28;20040;-70
2023/12/27 00:28:00;;;;;;;19.13;12.05;;;;;;;3.33;74.27;95087.28;5011320;28;20030;-70
2023/12/27 00:30:26;;;;;;;21.42;13.70;;;;;;;3.46;73.92;95093.47;5011246;28;20022;-70
2023/12/27 00:32:51;;;;;;;18.25;12.60;;;;;;;3.32;74.38;95091.59;5010895;28;20030;-70
2023/12/27 00:35:17;;;;;;;16.95;11.55;;;;;;;3.40;74.16;95105.78;4994367;28;20037;-70
2023/12/27 00:37:42;;;;;;;12.10;7.97;;;;;;;3.40;74.04;95103.22;5011650;28;20064;-70
2023/12/27 00:40:08;;;;;;;12.73;8.05;;;;;;;3.43;74.38;95114.19;5011040;28;20049;-70
2023/12/27 00:42:33;;;;;;;10.90;6.38;;;;;;;3.54;75.17;95117.03;5012156;28;20053;-70
2023/12/27 00:44:59;;;;;;;9.30;5.88;;;;;;;3.53;74.77;95119.69;5011148;28;20088;-70
2023/12/27 00:47:24;;;;;;;13.48;5.28;;;;;;;3.34;74.76;95125.75;5011360;28;20033;-70
2023/12/27 00:49:50;;;;;;;12.02;5.93;;;;;;;3.31;74.20;95123.31;5010818;28;20040;-70
2023/12/27 00:52:15;;;;;;;8.13;5.63;;;;;;;3.32;74.82;95126.72;5009635;28;20088;-70
2023/12/27 00:54:40;;;;;;;8.60;5.00;;;;;;;3.39;75.19;95128.06;4997289;28;20077;-70
2023/12/27 00:57:06;;;;;;;10.98;5.60;;;;;;;3.30;74.90;95131.94;4992307;28;20037;-69
2023/12/27 00:59:31;;;;;;;8.43;4.75;;;;;;;3.28;75.23;95128.59;5009822;28;20026;-70
2023/12/27 01:01:57;;;;;;;10.80;4.75;;;;;;;3.01;76.42;95117.97;5011498;28;20100;-70
2023/12/27 01:04:22;;;;;;;8.38;4.70;;;;;;;3.20;76.56;95127.31;5010358;28;20022;-69
2023/12/27 01:06:49;;;;;;;7.80;4.35;;;;;;;3.26;75.73;95132.13;4999049;28;20082;-70
2023/12/27 01:09:14;;;;;;;7.45;4.50;;;;;;;3.02;76.54;95141.88;4969845;28;20534;-69
2023/12/27 01:11:39;;;;;;;10.02;4.53;;;;;;;3.02;76.71;95135.00;5010635;28;20036;-70
2023/12/27 01:14:05;;;;;;;11.80;5.70;;;;;;;2.69;77.02;95094.66;5011612;28;20046;-69
2023/12/27 01:16:31;;;;;;;9.50;4.95;;;;;;;2.67;77.33;95123.84;5011603;28;20033;-70
2023/12/27 01:18:56;;;;;;;10.27;5.15;;;;;;;2.82;77.28;95147.97;4990787;28;20073;-69
2023/12/27 01:21:21;;;;;;;9.75;4.47;;;;;;;2.93;77.01;95140.59;4958487;28;20026;-69
2023/12/27 01:23:47;;;;;;;11.30;6.45;;;;;;;2.97;76.68;95136.13;4997262;28;20424;-69
2023/12/27 01:26:12;;;;;;;13.82;7.43;;;;;;;3.09;76.48;95120.97;5010353;28;20041;-70
2023/12/27 01:28:38;;;;;;;10.48;6.63;;;;;;;3.19;76.06;95115.38;5010179;28;20096;-70
2023/12/27 01:31:03;;;;;;;5.88;3.88;;;;;;;3.08;75.51;95129.56;5010276;28;20420;-70
2023/12/27 01:33:28;;;;;;;9.82;5.65;;;;;;;2.69;76.09;95125.44;5010352;28;20030;-70
2023/12/27 01:35:55;;;;;;;11.20;7.43;;;;;;;2.72;76.63;95109.06;5009988;28;20045;-70
2023/12/27 01:38:20;;;;;;;13.45;7.90;;;;;;;2.47;78.01;95147.84;5010207;28;20049;-70
2023/12/27 01:40:52;;;;;;;13.32;7.22;;;;;;;2.60;77.86;95131.00;5011201;28;20065;-70
2023/12/27 01:43:17;;;;;;;13.02;6.22;;;;;;;2.68;77.60;95144.31;4998540;28;20026;-70
2023/12/27 01:45:43;;;;;;;11.45;5.45;;;;;;;2.62;78.26;95138.66;4989080;28;20040;-70
2023/12/27 01:48:08;;;;;;;8.40;4.20;;;;;;;2.56;79.49;95133.78;4993751;28;20389;-70
2023/12/27 01:50:33;;;;;;;10.45;6.35;;;;;;;2.62;79.65;95144.59;4992932;28;20041;-70
2023/12/27 01:52:59;;;;;;;12.55;7.38;;;;;;;2.62;79.23;95151.47;5011253;28;20032;-70
2023/12/27 01:55:24;;;;;;;15.73;8.68;;;;;;;2.56;79.20;95137.16;4993109;28;20034;-70
2023/12/27 01:57:50;;;;;;;13.18;7.30;;;;;;;2.57;79.10;95138.84;5009020;28;20419;-70
2023/12/27 02:00:15;;;;;;;8.23;5.90;;;;;;;2.48;80.31;95157.22;5009645;28;20030;-70
2023/12/27 02:02:41;;;;;;;9.15;5.63;;;;;;;2.56;80.97;95162.81;5003158;28;20030;-70
2023/12/27 02:05:07;;;;;;;10.05;5.63;;;;;;;2.52;81.13;95151.03;4995926;28;20034;-70
2023/12/27 02:07:32;;;;;;;6.95;4.18;;;;;;;2.76;81.42;95155.94;5010970;28;20033;-70
2023/12/27 02:09:58;;;;;;;7.85;4.72;;;;;;;2.85;81.61;95152.94;4993403;28;20045;-70
2023/12/27 02:12:30;;;;;;;9.13;4.15;;;;;;;2.94;82.47;95146.56;4996157;28;20041;-70
2023/12/27 02:14:55;;;;;;;7.20;3.80;;;;;;;3.29;82.18;95143.13;5006555;28;20080;-70
2023/12/27 02:17:21;;;;;;;9.68;4.80;;;;;;;3.49;82.06;95147.25;4997127;28;20057;-70
2023/12/27 02:19:46;;;;;;;6.63;3.70;;;;;;;3.80;81.42;95159.41;4997468;28;20088;-69
2023/12/27 02:22:12;;;;;;;9.07;4.50;;;;;;;3.78;80.70;95156.06;4993894;28;20373;-70
2023/12/27 02:24:38;;;;;;;9.52;3.80;;;;;;;4.01;80.00;95151.47;4977805;28;20042;-70
2023/12/27 02:27:03;;;;;;;7.72;3.90;;;;;;;4.02;80.14;95141.13;4976088;28;20042;-70
2023/12/27 02:29:29;;;;;;;8.40;3.78;;;;;;;4.21;80.04;95163.31;5014718;28;20411;-70
2023/12/27 02:31:54;;;;;;;9.82;5.88;;;;;;;4.32;78.65;95145.59;5014445;28;20025;-70
2023/12/27 02:34:19;;;;;;;11.05;4.90;;;;;;;4.43;76.43;95119.28;5013334;28;20519;-70
2023/12/27 02:36:45;;;;;;;10.85;4.82;;;;;;;4.55;76.04;95121.19;4977301;28;20030;-70
2023/12/27 02:39:10;;;;;;;7.57;4.22;;;;;;;4.65;76.40;95158.41;4994899;28;20034;-70
2023/12/27 02:41:36;;;;;;;7.63;4.63;;;;;;;4.84;75.88;95157.38;5001567;28;20017;-70
2023/12/27 02:44:02;;;;;;;9.02;4.70;;;;;;;4.74;75.58;95159.63;5014922;28;20076;-70
2023/12/27 02:46:31;;;;;;;8.50;3.50;;;;;;;4.83;74.86;95143.69;5012943;28;20030;-70
2023/12/27 02:48:57;;;;;;;9.40;4.50;;;;;;;4.78;75.65;95150.00;4997084;28;20030;-70
2023/12/27 02:51:22;;;;;;;10.68;6.00;;;;;;;4.74;75.24;95157.06;5008535;28;20050;-70
2023/12/27 02:53:47;;;;;;;14.40;6.85;;;;;;;4.49;75.83;95157.56;4996820;28;20022;-70
2023/12/27 02:56:13;;;;;;;21.13;10.27;;;;;;;4.40;75.08;95160.59;5013004;28;20488;-69
2023/12/27 02:58:39;;;;;;;13.82;8.70;;;;;;;4.52;73.92;95162.53;5014181;28;20076;-69
2023/12/27 03:01:06;;;;;;;16.85;9.40;;;;;;;4.31;74.74;95167.06;5012163;28;20104;-70
2023/12/27 03:03:31;;;;;;;15.35;8.70;;;;;;;4.09;75.51;95174.22;5014344;28;20481;-69
2023/12/27 03:05:56;;;;;;;14.38;9.32;;;;;;;4.05;75.32;95163.28;5012852;28;20030;-69
2023/12/27 03:08:22;;;;;;;13.38;8.50;;;;;;;3.93;75.97;95161.34;4993029;28;20030;-69
2023/12/27 03:10:47;;;;;;;8.15;4.60;;;;;;;4.02;78.26;95163.44;4994447;28;20026;-69
2023/12/27 03:13:13;;;;;;;11.32;4.68;;;;;;;4.25;79.30;95167.38;4968504;28;20475;-69
2023/12/27 03:15:38;;;;;;;7.18;3.72;;;;;;;4.42;78.99;95172.47;4992973;28;20095;-70
2023/12/27 03:18:03;;;;;;;8.95;5.50;;;;;;;4.35;78.34;95176.28;5003183;28;20033;-69
2023/12/27 03:20:29;;;;;;;11.32;8.02;;;;;;;4.29;76.58;95179.19;5013872;28;20551;-69
2023/12/27 03:22:54;;;;;;;13.18;6.80;;;;;;;4.37;76.63;95177.03;5012944;28;20018;-69
2023/12/27 03:25:20;;;;;;;9.88;5.40;;;;;;;4.28;77.02;95189.53;5012501;28;20052;-69
2023/12/27 03:27:45;;;;;;;37.45;14.98;;;;;;;4.30;77.50;95187.72;5012386;28;20137;-69
2023/12/27 03:30:11;;;;;;;22.83;9.55;;;;;;;4.39;77.56;95187.25;5013718;28;20030;-69
2023/12/27 03:32:37;;;;;;;8.55;4.55;;;;;;;4.44;77.92;95170.66;5013396;28;20041;-70
2023/12/27 03:35:02;;;;;;;7.22;3.80;;;;;;;4.66;77.83;95174.66;5012317;28;20030;-69
2023/12/27 03:37:28;;;;;;;7.53;3.88;;;;;;;5.01;77.15;95201.03;5013744;28;20072;-69
2023/12/27 03:39:53;;;;;;;10.40;4.40;;;;;;;5.19;75.42;95188.91;5013306;28;20543;-69
2023/12/27 03:42:21;;;;;;;9.63;4.30;;;;;;;5.18;75.13;95194.97;5012157;28;20412;-69
2023/12/27 03:44:52;;;;;;;12.15;5.53;;;;;;;5.15;75.68;95202.84;5013206;28;20036;-69
2023/12/27 03:47:21;;;;;;;7.50;4.15;;;;;;;5.21;75.20;95197.41;4980945;28;20424;-69
2023/12/27 03:49:46;;;;;;;8.65;4.72;;;;;;;5.56;74.29;95197.16;5013120;28;20037;-69
2023/12/27 03:52:11;;;;;;;9.30;4.50;;;;;;;5.47;73.20;95190.78;5013259;28;20033;-69
2023/12/27 03:54:38;;;;;;;9.40;4.57;;;;;;;5.44;73.46;95210.72;5002362;28;20034;-69
2023/12/27 03:57:03;;;;;;;11.15;4.97;;;;;;;5.43;73.45;95209.88;4992651;28;20044;-69
2023/12/27 03:59:29;;;;;;;19.77;10.25;;;;;;;5.35;70.96;95205.19;5002675;28;20408;-69
2023/12/27 04:01:54;;;;;;;27.75;13.40;;;;;;;5.06;70.61;95200.81;5013079;28;20097;-69
2023/12/27 04:04:20;;;;;;;22.23;9.85;;;;;;;4.91;71.48;95199.91;5012753;28;20022;-69
2023/12/27 04:06:45;;;;;;;15.70;7.75;;;;;;;4.74;73.35;95205.13;5012108;28;20018;-69
2023/12/27 04:09:12;;;;;;;19.15;9.82;;;;;;;4.64;74.20;95199.63;4994574;28;20038;-69
2023/12/27 04:11:44;;;;;;;10.43;6.13;;;;;;;4.62;75.11;95201.47;5011321;28;20036;-69
2023/12/27 04:14:10;;;;;;;14.60;8.10;;;;;;;4.70;75.29;95209.59;4988713;28;20080;-69
2023/12/27 04:16:36;;;;;;;16.50;8.05;;;;;;;4.69;75.77;95215.66;5011493;28;20032;-69
2023/12/27 04:19:01;;;;;;;21.77;10.52;;;;;;;4.62;73.96;95214.31;4999552;28;20076;-70
2023/12/27 04:21:27;;;;;;;12.48;6.13;;;;;;;4.47;75.04;95226.25;4991674;28;20092;-69
2023/12/27 04:23:52;;;;;;;13.23;6.43;;;;;;;4.40;76.50;95230.06;4991997;28;20069;-70
2023/12/27 04:26:18;;;;;;;9.85;4.90;;;;;;;4.46;76.82;95240.03;5011048;28;20026;-69
2023/12/27 04:28:43;;;;;;;8.90;4.80;;;;;;;4.64;75.93;95245.97;5011473;28;20511;-69
2023/12/27 04:31:09;;;;;;;7.00;4.78;;;;;;;4.64;76.45;95251.94;4999316;28;20031;-69
2023/12/27 04:33:34;;;;;;;7.63;4.47;;;;;;;4.48;76.10;95210.75;4991833;28;20030;-69
2023/12/27 04:35:59;;;;;;;8.18;4.97;;;;;;;4.88;77.20;95242.09;5004179;28;20068;-69
2023/12/27 04:38:25;;;;;;;9.30;4.18;;;;;;;4.88;77.23;95247.25;5012639;28;20546;-69
2023/12/27 04:40:51;;;;;;;8.38;4.40;;;;;;;5.00;76.64;95244.91;5011625;28;20500;-69
2023/12/27 04:43:16;;;;;;;9.57;4.60;;;;;;;4.94;76.45;95248.66;4977311;28;20029;-69
2023/12/27 04:45:42;;;;;;;10.18;5.18;;;;;;;4.98;76.44;95245.00;4993818;28;20034;-69
2023/12/27 04:48:07;;;;;;;10.90;5.03;;;;;;;4.93;76.42;95240.09;5011907;28;20029;-68
2023/12/27 04:50:33;;;;;;;10.63;4.90;;;;;;;4.86;76.97;95246.47;5010789;28;20038;-68
2023/12/27 04:52:58;;;;;;;10.10;4.80;;;;;;;5.11;76.19;95253.72;5000021;28;20401;-68
2023/12/27 04:55:24;;;;;;;11.02;4.35;;;;;;;5.03;76.82;95252.47;4976003;28;20042;-68
2023/12/27 04:57:49;;;;;;;6.65;4.50;;;;;;;5.19;76.60;95249.91;5012208;28;20022;-68
2023/12/27 05:00:15;;;;;;;9.25;4.80;;;;;;;5.17;77.61;95249.97;4994410;28;20044;-68
2023/12/27 05:02:40;;;;;;;8.57;4.22;;;;;;;5.45;76.90;95249.28;5010420;28;20025;-68
2023/12/27 05:05:07;;;;;;;12.07;4.72;;;;;;;5.37;77.44;95238.56;5000567;28;20038;-68
2023/12/27 05:07:33;;;;;;;10.32;5.00;;;;;;;5.48;76.61;95246.53;5007457;28;20087;-68
2023/12/27 05:09:58;;;;;;;10.63;4.35;;;;;;;5.60;76.10;95257.94;5004290;28;20026;-68
2023/12/27 05:12:23;;;;;;;8.20;4.32;;;;;;;5.52;75.56;95250.63;5006930;28;20519;-68
2023/12/27 05:14:49;;;;;;;7.88;4.43;;;;;;;5.29;76.83;95233.00;5003741;28;20064;-68
2023/12/27 05:17:14;;;;;;;9.75;5.68;;;;;;;5.69;76.63;95270.28;5007903;28;20212;-68
2023/12/27 05:19:40;;;;;;;12.95;4.70;;;;;;;5.76;76.03;95269.00;5006298;28;20037;-68
2023/12/27 05:22:05;;;;;;;8.50;4.30;;;;;;;5.88;76.18;95266.66;4986216;28;20037;-68
2023/12/27 05:24:31;;;;;;;7.53;4.38;;;;;;;5.94;75.50;95274.09;5002645;28;20034;-68
2023/12/27 05:26:56;;;;;;;8.20;4.25;;;;;;;6.06;75.29;95273.38;5004864;28;20022;-68
2023/12/27 05:29:21;;;;;;;8.05;4.50;;;;;;;6.00;74.79;95284.03;5005858;28;20030;-69
2023/12/27 05:31:47;;;;;;;11.15;4.05;;;;;;;5.93;74.42;95293.88;5006385;28;20468;-68
2023/12/27 05:34:12;;;;;;;7.75;4.10;;;;;;;5.93;75.26;95287.84;5003507;28;20030;-68
2023/12/27 05:36:38;;;;;;;6.28;4.15;;;;;;;6.05;74.85;95287.19;5007683;28;20025;-68
2023/12/27 05:39:03;;;;;;;7.63;4.30;;;;;;;6.05;74.62;95292.34;5004145;28;20042;-68
2023/12/27 05:41:29;;;;;;;10.77;5.28;;;;;;;5.96;74.86;95293.72;4989735;28;20041;-68
2023/12/27 05:43:54;;;;;;;11.32;4.85;;;;;;;5.84;75.13;95304.69;5001781;28;20066;-68
2023/12/27 05:46:20;;;;;;;8.43;4.03;;;;;;;5.90;74.97;95298.34;5005879;28;20491;-68
2023/12/27 05:48:45;;;;;;;7.57;4.20;;;;;;;5.74;76.07;95299.22;5003015;28;20030;-68
2023/12/27 05:51:11;;;;;;;8.38;3.83;;;;;;;5.76;75.11;95305.09;5005673;28;20026;-68
2023/12/27 05:53:36;;;;;;;7.75;3.60;;;;;;;5.96;74.34;95309.19;5007530;28;20034;-69
2023/12/27 05:56:02;;;;;;;7.88;3.58;;;;;;;5.94;74.23;95323.09;5004547;28;20046;-69
2023/12/27 05:58:28;;;;;;;6.88;3.63;;;;;;;5.88;74.61;95331.09;5005780;28;20044;-68
2023/12/27 06:00:54;;;;;;;19.10;10.07;;;;;;;5.63;75.53;95321.34;5004518;28;20518;-70
2023/12/27 06:03:19;;;;;;;9.05;5.15;;;;;;;5.04;75.94;95241.25;5006213;28;20034;-69
2023/12/27 06:05:44;;;;;;;6.93;3.40;;;;;;;5.74;75.84;95339.63;5005078;28;20057;-68
2023/12/27 06:08:10;;;;;;;6.10;3.60;;;;;;;5.78;75.75;95341.94;5007316;28;20018;-68
2023/12/27 06:10:36;;;;;;;8.57;3.75;;;;;;;5.67;75.68;95341.72;5005629;28;20574;-68
2023/12/27 06:13:02;;;;;;;11.52;4.95;;;;;;;5.57;76.12;95356.00;4990243;28;20115;-68
2023/12/27 06:15:28;;;;;;;28.63;18.13;;;;;;;5.63;74.38;95342.81;4999284;28;20068;-69
2023/12/27 06:17:53;;;;;;;34.55;20.90;;;;;;;5.39;74.43;95355.28;4972061;28;20421;-68
2023/12/27 06:20:19;;;;;;;30.10;19.33;;;;;;;5.29;74.10;95354.94;5004934;28;20037;-68
2023/12/27 06:22:44;;;;;;;30.65;19.80;;;;;;;5.05;74.53;95351.09;5005654;28;20034;-68
2023/12/27 06:25:10;;;;;;;30.50;19.73;;;;;;;4.83;75.08;95357.34;4997209;28;20026;-68
2023/12/27 06:27:35;;;;;;;22.42;16.30;;;;;;;4.71;75.48;95352.84;5007100;28;20069;-68
2023/12/27 06:30:01;;;;;;;21.75;15.10;;;;;;;4.69;76.01;95360.63;5005101;28;20397;-69
2023/12/27 06:32:26;;;;;;;15.77;11.63;;;;;;;4.69;76.31;95357.22;5006169;28;20408;-69
2023/12/27 06:34:52;;;;;;;18.70;12.38;;;;;;;4.16;77.08;95335.03;5002843;28;20030;-68
2023/12/27 06:37:17;;;;;;;17.67;10.98;;;;;;;4.63;76.32;95349.81;5004278;28;20038;-68
2023/12/27 06:39:43;;;;;;;15.10;10.25;;;;;;;4.19;78.52;95360.59;5000469;28;20022;-68
2023/12/27 06:42:08;;;;;;;15.63;9.13;;;;;;;4.35;78.65;95363.25;5004284;28;20027;-69
2023/12/27 06:44:34;;;;;;;59.10;31.02;;;;;;;4.02;79.42;95371.69;5005676;28;20041;-69
2023/12/27 06:46:59;;;;;;;36.50;22.85;;;;;;;4.18;78.23;95374.34;5004885;28;20034;-68
2023/12/27 06:49:25;;;;;;;48.45;23.95;;;;;;;3.79;79.59;95340.22;5004769;28;20029;-68
2023/12/27 06:51:50;;;;;;;42.15;25.27;;;;;;;4.20;78.34;95373.34;5004900;28;20459;-68
2023/12/27 06:54:15;;;;;;;36.63;22.73;;;;;;;4.32;77.90;95377.09;5000634;28;20049;-68
2023/12/27 06:56:41;;;;;;;31.80;19.38;;;;;;;4.24;78.30;95382.59;5002573;28;20488;-68
2023/12/27 06:59:06;;;;;;;24.75;14.55;;;;;;;4.41;78.19;95389.50;5000062;28;20089;-68
2023/12/27 07:01:32;;;;;;;19.60;10.80;;;;;;;4.47;78.51;95386.59;5004201;28;20041;-68
2023/12/27 07:03:57;;;;;;;9.63;5.85;;;;;;;4.53;78.99;95402.66;5008075;28;20094;-68
2023/12/27 07:06:23;;;;;;;8.93;5.25;;;;;;;4.69;78.84;95414.69;5008526;28;20030;-68
2023/12/27 07:08:48;;;;;;;13.23;6.97;;;;;;;4.60;78.40;95409.19;5009543;28;20018;-68
2023/12/27 07:11:18;;;;;;;12.65;8.05;;;;;;;4.84;77.51;95419.97;5010019;28;20420;-68
2023/12/27 07:13:46;;;;;;;8.07;5.60;;;;;;;4.54;78.49;95407.75;5008718;28;20053;-69
2023/12/27 07:16:12;;;;;;;12.60;6.00;;;;;;;4.38;79.60;95420.50;4989233;28;20097;-72
2023/12/27 07:18:37;;;;;;;11.40;5.28;;;;;;;4.59;79.14;95443.50;4991683;28;20033;-68
2023/12/27 07:21:04;;;;;;;13.38;6.30;;;;;;;4.55;79.49;95452.31;5006430;28;20041;-71
2023/12/27 07:23:30;;;;;;;16.17;10.93;;;;;;;4.64;78.97;95459.56;4970805;28;20038;-71
2023/12/27 07:25:55;;;;;;;12.35;6.03;;;;;;;4.62;78.88;95451.91;5003890;28;20026;-70
2023/12/27 07:28:21;;;;;;;18.00;10.68;;;;;;;4.57;78.88;95453.91;5003166;28;20041;-69
2023/12/27 07:30:46;;;;;;;10.73;7.60;;;;;;;4.68;78.22;95456.78;5006090;28;20057;-70
2023/12/27 07:33:15;;;;;;;13.18;7.60;;;;;;;4.37;79.52;95469.44;5008334;28;20038;-72
2023/12/27 07:35:42;;;;;;;19.60;11.85;;;;;;;4.19;79.25;95438.56;4994472;28;20033;-72
2023/12/27 07:38:08;;;;;;;22.63;14.15;;;;;;;4.28;79.85;95477.63;5006266;28;20038;-72
2023/12/27 07:40:34;;;;;;;45.80;27.20;;;;;;;4.17;80.09;95489.22;5002994;28;20034;-72
2023/12/27 07:42:59;;;;;;;21.17;13.20;;;;;;;4.25;79.10;95452.88;4999833;28;20037;-69
2023/12/27 07:45:25;;;;;;;36.33;19.45;;;;;;;4.32;79.37;95469.69;5002778;28;20080;-70
2023/12/27 07:47:50;;;;;;;25.85;17.23;;;;;;;4.56;79.33;95477.13;5003524;28;20026;-67
2023/12/27 07:50:16;;;;;;;19.70;12.38;;;;;;;4.65;78.96;95479.25;5012096;28;20419;-68
2023/12/27 07:52:42;;;;;;;26.15;15.60;;;;;;;4.82;78.32;95479.25;5011721;28;20034;-67
2023/12/27 07:55:08;;;;;;;17.75;11.65;;;;;;;4.64;78.42;95469.88;5006344;28;20033;-68
2023/12/27 07:57:33;;;;;;;15.88;9.52;;;;;;;4.85;78.34;95475.72;5011764;28;20034;-68
2023/12/27 07:59:58;;;;;;;16.30;7.63;;;;;;;4.91;78.32;95462.53;5010914;28;20042;-68
2023/12/27 08:02:24;;;;;;;11.70;6.85;;;;;;;4.82;78.99;95479.25;5011559;28;20033;-67
2023/12/27 08:04:49;;;;;;;19.08;10.60;;;;;;;5.14;78.97;95492.25;5010765;28;20444;-68
2023/12/27 08:07:15;;;;;;;13.30;9.05;;;;;;;5.28;78.67;95507.00;5012102;28;20026;-68
2023/12/27 08:09:40;;;;;;;11.85;8.77;;;;;;;5.23;78.43;95502.09;5011245;28;20034;-68
2023/12/27 08:12:06;;;;;;;12.02;6.70;;;;;;;5.41;77.71;95496.94;5010314;28;20092;-68
2023/12/27 08:14:32;;;;;;;9.57;6.30;;;;;;;5.53;77.92;95491.94;4995406;28;20061;-68
2023/12/27 08:16:57;;;;;;;11.52;5.20;;;;;;;5.57;79.09;95492.59;4990595;28;20420;-68
2023/12/27 08:19:23;;;;;;;10.88;5.30;;;;;;;5.86;78.86;95500.56;5005123;28;20514;-68
2023/12/27 08:21:48;;;;;;;7.95;4.45;;;;;;;6.17;77.76;95503.19;5009007;28;20034;-67
2023/12/27 08:24:13;;;;;;;8.60;4.97;;;;;;;6.26;78.39;95509.59;5009682;28;20041;-68
2023/12/27 08:26:39;;;;;;;7.80;5.10;;;;;;;6.61;76.96;95517.16;4992607;28;20554;-68
2023/12/27 08:29:04;;;;;;;7.63;4.78;;;;;;;6.51;76.76;95491.00;5011490;28;20088;-68
2023/12/27 08:31:30;;;;;;;10.93;4.80;;;;;;;6.81;76.53;95490.19;4994853;28;20042;-68
2023/12/27 08:33:58;;;;;;;7.30;4.25;;;;;;;7.24;75.39;95506.59;5011407;28;20025;-68
2023/12/27 08:36:24;;;;;;;9.70;4.45;;;;;;;7.25;74.99;95487.59;5009093;28;20040;-68
2023/12/27 08:38:50;;;;;;;9.38;5.03;;;;;;;7.43;73.61;95505.53;5010311;28;20056;-68
2023/12/27 08:41:15;;;;;;;11.13;5.47;;;;;;;7.73;71.45;95510.63;4991845;28;20038;-68
2023/12/27 08:43:42;;;;;;;8.90;4.47;;;;;;;8.00;71.19;95511.53;5010699;28;20484;-68
2023/12/27 08:46:11;;;;;;;9.25;4.90;;;;;;;8.16;70.80;95507.97;5008817;28;20571;-68
2023/12/27 08:48:36;;;;;;;9.95;4.78;;;;;;;8.28;71.16;95526.19;4994272;28;20144;-68
2023/12/27 08:51:02;;;;;;;10.60;5.60;;;;;;;8.62;68.92;95518.06;4994738;28;20117;-68
2023/12/27 08:53:29;;;;;;;9.40;5.72;;;;;;;8.76;67.84;95530.97;4994769;28;20057;-68
2023/12/27 08:55:54;;;;;;;8.10;5.32;;;;;;;8.99;67.20;95537.25;5011959;28;20129;-69
2023/12/27 08:58:20;;;;;;;12.98;7.18;;;;;;;9.09;66.47;95533.13;5010755;28;20034;-68
2023/12/27 09:00:45;;;;;;;13.75;8.20;;;;;;;9.10;66.27;95523.59;5012035;28;20030;-68
2023/12/27 09:03:11;;;;;;;13.52;8.25;;;;;;;9.03;66.09;95532.72;4994284;28;20403;-68
2023/12/27 09:05:36;;;;;;;12.88;8.15;;;;;;;9.27;65.84;95520.69;5011926;28;20388;-68
2023/12/27 09:08:01;;;;;;;14.52;7.63;;;;;;;9.23;66.19;95523.63;5011972;28;20391;-68
2023/12/27 09:10:27;;;;;;;12.57;7.60;;;;;;;9.55;64.58;95534.41;5010533;28;20041;-68
2023/12/27 09:12:52;;;;;;;10.52;7.18;;;;;;;9.72;63.58;95536.72;5010170;28;20058;-68
2023/12/27 09:15:18;;;;;;;13.13;7.25;;;;;;;9.73;62.39;95525.41;5011584;28;20420;-67
2023/12/27 09:17:43;;;;;;;12.93;7.65;;;;;;;9.92;62.51;95524.97;5010456;28;20029;-68
2023/12/27 09:20:09;;;;;;;11.05;6.85;;;;;;;9.85;62.53;95501.19;5011422;28;20029;-68
2023/12/27 09:22:35;;;;;;;14.73;7.78;;;;;;;10.13;62.65;95516.63;5009916;28;20057;-68
2023/12/27 09:25:00;;;;;;;15.20;7.65;;;;;;;10.15;61.36;95500.00;5011555;28;20022;-67
2023/12/27 09:27:26;;;;;;;15.98;8.23;;;;;;;10.38;62.13;95507.97;5010295;28;20033;-68
2023/12/27 09:29:52;;;;;;;10.77;7.28;;;;;;;10.23;62.19;95499.47;5010236;28;20183;-68
2023/12/27 09:32:17;;;;;;;12.07;7.63;;;;;;;10.23;62.09;95496.88;4993750;28;20107;-68
2023/12/27 09:34:43;;;;;;;15.02;6.68;;;;;;;10.20;60.84;95484.13;5010118;28;20041;-68
2023/12/27 09:37:08;;;;;;;13.55;6.72;;;;;;;10.29;60.59;95496.47;4993698;28;20036;-68
2023/12/27 09:39:34;;;;;;;19.58;8.45;;;;;;;10.17;60.39;95495.53;5011266;28;20030;-68
2023/12/27 09:41:59;;;;;;;10.40;5.35;;;;;;;10.61;59.99;95477.75;5010054;28;20489;-68
2023/12/27 09:44:24;;;;;;;20.83;9.82;;;;;;;10.71;59.11;95478.75;4993635;28;20074;-68
2023/12/27 09:46:50;;;;;;;9.00;4.10;;;;;;;10.76;59.33;95476.66;5011135;28;20029;-68
2023/12/27 09:49:15;;;;;;;11.60;5.82;;;;;;;10.77;59.82;95472.28;4993538;28;20042;-68
2023/12/27 09:51:41;;;;;;;15.70;6.80;;;;;;;10.78;58.77;95450.53;5010224;28;20076;-68
2023/12/27 09:54:06;;;;;;;12.70;6.85;;;;;;;10.90;58.37;95447.88;4977431;28;20081;-68
2023/12/27 09:56:32;;;;;;;16.25;7.65;;;;;;;10.87;58.92;95455.88;5009823;28;20045;-68
2023/12/27 09:59:05;;;;;;;16.27;8.48;;;;;;;10.98;58.92;95462.91;4993527;28;20037;-68
2023/12/27 10:01:31;;;;;;;11.15;5.53;;;;;;;11.09;58.33;95443.91;4993961;28;20026;-68
2023/12/27 10:04:05;;;;;;;32.42;15.55;;;;;;;11.12;58.07;95452.28;5011499;28;20030;-68
2023/12/27 10:06:37;;;;;;;28.80;11.25;;;;;;;11.11;58.58;95468.81;4993993;28;20029;-68
2023/12/27 10:09:03;;;;;;;30.90;12.25;;;;;;;11.08;57.89;95465.63;5010000;28;20034;-68
2023/12/27 10:11:29;;;;;;;31.85;11.77;;;;;;;11.08;57.46;95455.22;5009769;28;20022;-68
2023/12/27 10:13:54;;;;;;;21.48;8.55;;;;;;;11.28;57.32;95467.59;5010988;28;20057;-68
2023/12/27 10:16:20;;;;;;;23.10;8.77;;;;;;;11.34;57.14;95469.72;5009743;28;20068;-68
2023/12/27 10:18:46;;;;;;;31.10;12.18;;;;;;;11.29;57.17;95487.44;4992912;28;20037;-68
2023/12/27 10:21:12;;;;;;;15.80;5.85;;;;;;;11.41;57.14;95472.69;5009415;28;20030;-68
2023/12/27 10:23:37;;;;;;;69.90;23.17;;;;;;;11.38;56.66;95481.53;5009733;28;20058;-68
2023/12/27 10:26:02;;;;;;;22.73;9.25;;;;;;;11.51;56.51;95473.66;5009163;28;20051;-68
2023/12/27 10:28:28;;;;;;;34.78;15.27;;;;;;;11.80;56.58;95473.19;5008952;28;20100;-68
2023/12/27 10:30:53;;;;;;;11.23;6.10;;;;;;;11.75;55.86;95464.88;5010325;28;20030;-68
2023/12/27 10:33:22;;;;;;;29.02;12.77;;;;;;;11.50;56.18;95468.53;4995054;28;20550;-68
2023/12/27 10:35:47;;;;;;;24.88;10.95;;;;;;;11.53;55.87;95440.53;5014663;28;20442;-68
2023/12/27 10:38:13;;;;;;;13.57;7.28;;;;;;;11.59;55.84;95423.63;5013623;28;20037;-68
2023/12/27 10:40:41;;;;;;;20.23;9.40;;;;;;;11.74;55.53;95422.44;5013704;28;20037;-68
2023/12/27 10:43:09;;;;;;;6.85;4.10;;;;;;;12.09;55.39;95429.28;4997512;28;20088;-68
2023/12/27 10:45:35;;;;;;;11.00;7.72;;;;;;;11.73;55.08;95422.53;5014558;28;20060;-69
2023/12/27 10:48:02;;;;;;;6.32;4.20;;;;;;;11.92;55.45;95421.97;4997044;28;20480;-67
2023/12/27 10:50:30;;;;;;;8.05;3.33;;;;;;;12.15;54.51;95426.19;4997231;28;20427;-67
2023/12/27 10:53:06;;;;;;;10.18;4.30;;;;;;;11.90;54.58;95427.31;4996815;28;20041;-66
2023/12/27 10:55:32;;;;;;;7.38;3.53;;;;;;;11.89;54.54;95420.41;5014321;28;20030;-67
2023/12/27 10:57:59;;;;;;;5.90;3.33;;;;;;;12.20;54.49;95433.63;5013146;28;20041;-67
2023/12/27 11:00:24;;;;;;;6.22;3.65;;;;;;;11.96;54.52;95431.19;5013051;28;20030;-67
2023/12/27 11:02:50;;;;;;;5.53;3.58;;;;;;;11.94;54.47;95431.31;4996672;28;20486;-66
2023/12/27 11:05:15;;;;;;;8.75;3.72;;;;;;;11.96;53.63;95437.22;5012912;28;20030;-67
2023/12/27 11:07:42;;;;;;;12.02;5.43;;;;;;;11.95;54.08;95432.13;4996469;28;20459;-66
2023/12/27 11:10:09;;;;;;;10.07;5.95;;;;;;;11.74;53.99;95416.41;5012879;28;20034;-67
2023/12/27 11:12:35;;;;;;;8.52;4.68;;;;;;;12.20;53.77;95441.44;5012562;28;20034;-67
2023/12/27 11:15:02;;;;;;;7.28;4.10;;;;;;;11.96;53.79;95426.00;4996487;28;20034;-66
2023/12/27 11:17:28;;;;;;;6.20;3.97;;;;;;;12.18;54.04;95445.97;5012758;28;20439;-66
2023/12/27 11:19:53;;;;;;;6.28;3.40;;;;;;;12.20;53.45;95446.66;4996464;28;20030;-67
2023/12/27 11:22:18;;;;;;;6.90;3.90;;;;;;;12.20;53.48;95446.66;4996161;28;20029;-67
2023/12/27 11:24:44;;;;;;;7.55;3.92;;;;;;;11.89;53.83;95450.84;5012544;28;20046;-67
2023/12/27 11:27:09;;;;;;;8.77;4.03;;;;;;;11.84;54.07;95432.97;5012480;28;20053;-67